Tekamah, NE (68061)

11:40 PM CST on March 06, 2015 (GMT -0600)
Tekamah | Change Station
CLOSE
Current Station
Airport
Location: Tekamah,
Elevation: 1027 ft
Nearby Weather Stations

Elev 1027 ft 41.76 °N, 96.18 °W | Updated 46 minutes ago

Overcast
Overcast
38 °F
Feels Like 38 °F
N
0
Wind Variable Wind from North

Today
High -- | Low -- °F
--% Chance of Precip.
Yesterday
High -- | Low -- °F
Precip. -- in
6:52 AM 6:20 PM
Full, 98% visible
Pressure 30.12 in
Visibility 10.0 miles
Clouds Overcast 11000 ft
Dew Point 23 °F
Humidity 55%
Rainfall 0.00 in
Snow Depth Not available.
UV 0 out of 12
Pollen 3.60 out of 12
Air Quality Not available.
Flu Activity Not available.
METAR KTQE 070454Z AUTO 00000KT 10SM OVC110 03/M05 A3011 RMK AO2 SLP199 T00331050

More Conditions Fewer Conditions

Pressure 30.12 in
Visibility 10.0 miles
Clouds Overcast 11000 ft
Dew Point 23 °F
Humidity 55%
Rainfall 0.00 in
Snow Depth Not available.
UV 0 out of 12
Pollen 3.60 out of 12
Air Quality Not available.
Flu Activity Not available.
METAR KTQE 070454Z AUTO 00000KT 10SM OVC110 03/M05 A3011 RMK AO2 SLP199 T00331050

More Conditions Fewer Conditions

10-Day Weather Forecast

Almanac

Astronomy

Mar. 06, 2015 Rise Set
Actual Time
Civil Twilight
Nautical Twilight
Astronomical Twilight
Moon
Length of Visible Light
Length of Day
Tomorrow will be .
, % of the Moon is Illuminated

Today's Extremes

State Highs State Lows

Community

WunderPhotos

Upload Photos

1,803,552 photos uploaded!

WunderBlogs® & News

Nearby

Air Quality

  Air Quality AQ Index Pollutant
Not available.

Snow Depth

Station Depth Elevation

Earthquake Activity

City Distance Mag. Time & Date
Minimum magnitude displayed is 2.5.

Coastal Water Temperatures

Place Temperature

Nearby Weather Stations